sensor_id;sensor_type;location;lat;lon;timestamp;pressure;altitude;pressure_sealevel;temperature;humidity
37142;BME280;23041;49.816;20.092;2022-07-23T00:02:16;97768.21;;;19.66;61.31
37142;BME280;23041;49.816;20.092;2022-07-23T00:04:42;97774.45;;;19.61;61.39
37142;BME280;23041;49.816;20.092;2022-07-23T00:07:09;97784.30;;;19.66;61.46
37142;BME280;23041;49.816;20.092;2022-07-23T00:09:35;97781.84;;;19.64;61.51
37142;BME280;23041;49.816;20.092;2022-07-23T00:12:03;97785.55;;;19.65;61.55
37142;BME280;23041;49.816;20.092;2022-07-23T00:14:30;97789.28;;;19.62;61.60
37142;BME280;23041;49.816;20.092;2022-07-23T00:16:56;97781.97;;;19.54;61.64
37142;BME280;23041;49.816;20.092;2022-07-23T00:19:23;97782.95;;;19.51;61.67
37142;BME280;23041;49.816;20.092;2022-07-23T00:24:15;97779.92;;;19.35;61.78
37142;BME280;23041;49.816;20.092;2022-07-23T00:26:42;97771.14;;;19.22;61.86
37142;BME280;23041;49.816;20.092;2022-07-23T00:29:08;97779.19;;;19.09;61.98
37142;BME280;23041;49.816;20.092;2022-07-23T00:31:34;97783.65;;;19.11;62.08
37142;BME280;23041;49.816;20.092;2022-07-23T00:34:01;97783.50;;;19.10;62.17
37142;BME280;23041;49.816;20.092;2022-07-23T00:36:27;97777.38;;;19.06;62.26
37142;BME280;23041;49.816;20.092;2022-07-23T00:38:57;97776.95;;;19.03;62.35
37142;BME280;23041;49.816;20.092;2022-07-23T00:41:23;97778.19;;;19.02;62.45
37142;BME280;23041;49.816;20.092;2022-07-23T00:43:49;97784.66;;;19.04;62.52
37142;BME280;23041;49.816;20.092;2022-07-23T00:46:21;97777.92;;;19.00;62.59
37142;BME280;23041;49.816;20.092;2022-07-23T00:48:48;97769.19;;;18.83;62.72
37142;BME280;23041;49.816;20.092;2022-07-23T00:51:15;97781.80;;;18.98;62.84
37142;BME280;23041;49.816;20.092;2022-07-23T00:53:42;97773.47;;;19.08;62.90
37142;BME280;23041;49.816;20.092;2022-07-23T00:56:10;97773.55;;;19.14;62.94
37142;BME280;23041;49.816;20.092;2022-07-23T00:58:38;97777.58;;;19.13;62.96
37142;BME280;23041;49.816;20.092;2022-07-23T01:01:05;97784.41;;;19.12;63.01
37142;BME280;23041;49.816;20.092;2022-07-23T01:03:31;97784.05;;;19.04;63.01
37142;BME280;23041;49.816;20.092;2022-07-23T01:05:58;97788.14;;;18.99;63.03
37142;BME280;23041;49.816;20.092;2022-07-23T01:08:25;97775.37;;;18.82;63.12
37142;BME280;23041;49.816;20.092;2022-07-23T01:10:51;97783.29;;;18.89;63.19
37142;BME280;23041;49.816;20.092;2022-07-23T01:13:18;97774.30;;;18.94;63.21
37142;BME280;23041;49.816;20.092;2022-07-23T01:15:45;97774.23;;;18.99;63.27
37142;BME280;23041;49.816;20.092;2022-07-23T01:18:11;97776.80;;;19.02;63.27
37142;BME280;23041;49.816;20.092;2022-07-23T01:20:38;97779.58;;;19.02;63.31
37142;BME280;23041;49.816;20.092;2022-07-23T01:23:05;97780.27;;;18.97;63.33
37142;BME280;23041;49.816;20.092;2022-07-23T01:25:31;97773.21;;;18.82;63.33
37142;BME280;23041;49.816;20.092;2022-07-23T01:27:58;97766.70;;;18.70;63.38
37142;BME280;23041;49.816;20.092;2022-07-23T01:30:24;97781.64;;;18.72;63.42
37142;BME280;23041;49.816;20.092;2022-07-23T01:32:51;97771.14;;;18.72;63.45
37142;BME280;23041;49.816;20.092;2022-07-23T01:35:17;97775.94;;;18.71;63.48
37142;BME280;23041;49.816;20.092;2022-07-23T01:37:44;97769.81;;;18.67;63.55
37142;BME280;23041;49.816;20.092;2022-07-23T01:40:11;97771.20;;;18.67;63.62
37142;BME280;23041;49.816;20.092;2022-07-23T01:42:38;97777.83;;;18.70;63.72
37142;BME280;23041;49.816;20.092;2022-07-23T01:45:05;97767.36;;;18.50;63.87
37142;BME280;23041;49.816;20.092;2022-07-23T01:47:32;97780.02;;;18.66;63.96
37142;BME280;23041;49.816;20.092;2022-07-23T01:49:58;97780.25;;;18.72;64.02
37142;BME280;23041;49.816;20.092;2022-07-23T01:52:25;97780.55;;;18.74;64.06
37142;BME280;23041;49.816;20.092;2022-07-23T01:54:51;97773.30;;;18.72;64.11
37142;BME280;23041;49.816;20.092;2022-07-23T01:57:17;97773.06;;;18.66;64.13
37142;BME280;23041;49.816;20.092;2022-07-23T01:59:44;97772.71;;;18.58;64.21
37142;BME280;23041;49.816;20.092;2022-07-23T02:02:10;97770.98;;;18.42;64.28
37142;BME280;23041;49.816;20.092;2022-07-23T02:04:37;97778.45;;;18.55;64.39
37142;BME280;23041;49.816;20.092;2022-07-23T02:07:04;97774.22;;;18.59;64.43
37142;BME280;23041;49.816;20.092;2022-07-23T02:09:31;97774.87;;;18.59;64.47
37142;BME280;23041;49.816;20.092;2022-07-23T02:11:58;97776.26;;;18.54;64.48
37142;BME280;23041;49.816;20.092;2022-07-23T02:14:25;97776.94;;;18.49;64.50
37142;BME280;23041;49.816;20.092;2022-07-23T02:16:52;97784.03;;;18.50;64.55
37142;BME280;23041;49.816;20.092;2022-07-23T02:19:18;97779.11;;;18.35;64.63
37142;BME280;23041;49.816;20.092;2022-07-23T02:21:45;97776.75;;;18.38;64.70
37142;BME280;23041;49.816;20.092;2022-07-23T02:24:11;97782.20;;;18.47;64.70
37142;BME280;23041;49.816;20.092;2022-07-23T02:26:38;97781.02;;;18.44;64.73
37142;BME280;23041;49.816;20.092;2022-07-23T02:29:05;97782.16;;;18.37;64.76
37142;BME280;23041;49.816;20.092;2022-07-23T02:31:31;97779.73;;;18.34;64.80
37142;BME280;23041;49.816;20.092;2022-07-23T02:33:58;97786.08;;;18.30;64.83
37142;BME280;23041;49.816;20.092;2022-07-23T02:36:24;97775.44;;;18.14;64.91
37142;BME280;23041;49.816;20.092;2022-07-23T02:38:51;97782.19;;;18.18;65.02
37142;BME280;23041;49.816;20.092;2022-07-23T02:41:17;97785.83;;;18.24;65.04
37142;BME280;23041;49.816;20.092;2022-07-23T02:43:43;97783.03;;;18.28;65.09
37142;BME280;23041;49.816;20.092;2022-07-23T02:46:10;97781.30;;;18.31;65.18
37142;BME280;23041;49.816;20.092;2022-07-23T02:48:36;97778.72;;;18.27;65.21
37142;BME280;23041;49.816;20.092;2022-07-23T02:51:04;97773.31;;;18.28;65.24
37142;BME280;23041;49.816;20.092;2022-07-23T02:53:31;97770.30;;;18.17;65.34
37142;BME280;23041;49.816;20.092;2022-07-23T02:56:00;97782.28;;;18.23;65.40
37142;BME280;23041;49.816;20.092;2022-07-23T02:58:26;97775.17;;;18.27;65.42
37142;BME280;23041;49.816;20.092;2022-07-23T03:00:53;97779.44;;;18.32;65.46
37142;BME280;23041;49.816;20.092;2022-07-23T03:03:20;97775.83;;;18.36;65.50
37142;BME280;23041;49.816;20.092;2022-07-23T03:05:47;97769.19;;;18.39;65.49
37142;BME280;23041;49.816;20.092;2022-07-23T03:08:14;97762.97;;;18.29;65.50
37142;BME280;23041;49.816;20.092;2022-07-23T03:10:40;97773.63;;;18.26;65.55
37142;BME280;23041;49.816;20.092;2022-07-23T03:13:06;97772.86;;;18.25;65.57
37142;BME280;23041;49.816;20.092;2022-07-23T03:15:33;97778.98;;;18.29;65.55
37142;BME280;23041;49.816;20.092;2022-07-23T03:17:59;97776.88;;;18.24;65.54
37142;BME280;23041;49.816;20.092;2022-07-23T03:20:26;97778.72;;;18.27;65.57
37142;BME280;23041;49.816;20.092;2022-07-23T03:22:52;97779.44;;;18.32;65.61
37142;BME280;23041;49.816;20.092;2022-07-23T03:25:18;97772.23;;;18.26;65.65
37142;BME280;23041;49.816;20.092;2022-07-23T03:27:45;97766.98;;;18.28;65.71
37142;BME280;23041;49.816;20.092;2022-07-23T03:30:14;97772.48;;;18.32;65.79
37142;BME280;23041;49.816;20.092;2022-07-23T03:32:40;97770.66;;;18.44;65.83
37142;BME280;23041;49.816;20.092;2022-07-23T03:35:07;97773.59;;;18.45;65.82
37142;BME280;23041;49.816;20.092;2022-07-23T03:37:34;97772.20;;;18.45;65.82
37142;BME280;23041;49.816;20.092;2022-07-23T03:40:00;97768.42;;;18.53;65.80
37142;BME280;23041;49.816;20.092;2022-07-23T03:42:27;97767.16;;;18.58;65.81
37142;BME280;23041;49.816;20.092;2022-07-23T03:44:53;97769.94;;;18.58;65.81
37142;BME280;23041;49.816;20.092;2022-07-23T03:47:19;97764.91;;;18.48;65.88
37142;BME280;23041;49.816;20.092;2022-07-23T03:49:48;97772.03;;;18.63;65.94
37142;BME280;23041;49.816;20.092;2022-07-23T03:52:14;97767.98;;;18.79;65.95
37142;BME280;23041;49.816;20.092;2022-07-23T03:54:41;97766.90;;;18.91;65.96
37142;BME280;23041;49.816;20.092;2022-07-23T03:57:07;97766.83;;;18.96;66.00
37142;BME280;23041;49.816;20.092;2022-07-23T03:59:34;97771.53;;;19.04;65.99
37142;BME280;23041;49.816;20.092;2022-07-23T04:02:00;97758.16;;;18.98;66.00
37142;BME280;23041;49.816;20.092;2022-07-23T04:04:26;97769.22;;;19.03;66.06
37142;BME280;23041;49.816;20.092;2022-07-23T04:06:53;97767.73;;;19.12;66.11
37142;BME280;23041;49.816;20.092;2022-07-23T04:09:19;97776.23;;;19.33;66.03
37142;BME280;23041;49.816;20.092;2022-07-23T04:11:45;97767.88;;;19.43;65.99
37142;BME280;23041;49.816;20.092;2022-07-23T04:14:12;97772.37;;;19.55;65.93
37142;BME280;23041;49.816;20.092;2022-07-23T04:16:38;97765.06;;;19.68;65.85
37142;BME280;23041;49.816;20.092;2022-07-23T04:19:05;97762.41;;;19.79;65.80
37142;BME280;23041;49.816;20.092;2022-07-23T04:21:31;97759.12;;;19.91;65.70
37142;BME280;23041;49.816;20.092;2022-07-23T04:23:57;97751.75;;;19.88;65.65
37142;BME280;23041;49.816;20.092;2022-07-23T04:26:24;97757.02;;;20.06;65.58
37142;BME280;23041;49.816;20.092;2022-07-23T04:28:50;97752.60;;;20.20;65.43
37142;BME280;23041;49.816;20.092;2022-07-23T04:31:16;97760.09;;;20.34;65.32
37142;BME280;23041;49.816;20.092;2022-07-23T04:33:43;97762.11;;;20.44;65.21
37142;BME280;23041;49.816;20.092;2022-07-23T04:36:09;97759.13;;;20.53;65.10
37142;BME280;23041;49.816;20.092;2022-07-23T04:38:35;97759.84;;;20.63;65.00
37142;BME280;23041;49.816;20.092;2022-07-23T04:41:02;97754.24;;;20.73;64.94
37142;BME280;23041;49.816;20.092;2022-07-23T04:43:28;97747.62;;;20.71;64.84
37142;BME280;23041;49.816;20.092;2022-07-23T04:45:55;97740.58;;;20.81;64.85
37142;BME280;23041;49.816;20.092;2022-07-23T04:48:22;97743.30;;;21.07;64.79
37142;BME280;23041;49.816;20.092;2022-07-23T04:50:48;97746.48;;;21.26;64.63
37142;BME280;23041;49.816;20.092;2022-07-23T04:53:14;97746.84;;;21.44;64.45
37142;BME280;23041;49.816;20.092;2022-07-23T04:55:41;97743.48;;;21.62;64.30
37142;BME280;23041;49.816;20.092;2022-07-23T04:58:07;97727.08;;;21.91;64.31
37142;BME280;23041;49.816;20.092;2022-07-23T05:00:33;97727.08;;;21.91;64.31
37142;BME280;23041;49.816;20.092;2022-07-23T05:03:00;97737.42;;;22.12;63.87
37142;BME280;23041;49.816;20.092;2022-07-23T05:05:26;97736.17;;;22.24;63.72
37142;BME280;23041;49.816;20.092;2022-07-23T05:07:52;97730.09;;;22.43;63.60
37142;BME280;23041;49.816;20.092;2022-07-23T05:10:20;97736.45;;;22.49;63.52
37142;BME280;23041;49.816;20.092;2022-07-23T05:12:46;97739.67;;;22.74;63.33
37142;BME280;23041;49.816;20.092;2022-07-23T05:15:12;97733.41;;;22.97;63.16
37142;BME280;23041;49.816;20.092;2022-07-23T05:17:39;97741.38;;;23.22;62.96
37142;BME280;23041;49.816;20.092;2022-07-23T05:20:06;97737.76;;;23.38;62.73
37142;BME280;23041;49.816;20.092;2022-07-23T05:22:33;97741.83;;;23.53;62.55
37142;BME280;23041;49.816;20.092;2022-07-23T05:25:00;97742.52;;;23.71;62.34
37142;BME280;23041;49.816;20.092;2022-07-23T05:27:26;97747.30;;;23.81;62.11
37142;BME280;23041;49.816;20.092;2022-07-23T05:29:52;97746.98;;;23.90;61.80
37142;BME280;23041;49.816;20.092;2022-07-23T05:32:19;97748.73;;;23.99;61.55
37142;BME280;23041;49.816;20.092;2022-07-23T05:34:45;97742.91;;;24.15;61.22
37142;BME280;23041;49.816;20.092;2022-07-23T05:37:11;97736.39;;;24.24;60.97
37142;BME280;23041;49.816;20.092;2022-07-23T05:39:38;97741.54;;;24.32;60.79
37142;BME280;23041;49.816;20.092;2022-07-23T05:42:04;97732.65;;;24.46;60.50
37142;BME280;23041;49.816;20.092;2022-07-23T05:44:30;97733.91;;;24.63;60.25
37142;BME280;23041;49.816;20.092;2022-07-23T05:46:57;97739.63;;;24.81;59.99
37142;BME280;23041;49.816;20.092;2022-07-23T05:49:23;97730.80;;;25.02;59.79
37142;BME280;23041;49.816;20.092;2022-07-23T05:51:49;97729.22;;;25.18;59.52
37142;BME280;23041;49.816;20.092;2022-07-23T05:54:16;97732.95;;;25.27;59.16
37142;BME280;23041;49.816;20.092;2022-07-23T05:56:42;97733.61;;;25.26;58.70
37142;BME280;23041;49.816;20.092;2022-07-23T05:59:08;97725.91;;;25.39;58.33
37142;BME280;23041;49.816;20.092;2022-07-23T06:01:35;97726.78;;;25.52;58.00
37142;BME280;23041;49.816;20.092;2022-07-23T06:04:01;97723.22;;;25.64;57.76
37142;BME280;23041;49.816;20.092;2022-07-23T06:06:27;97726.45;;;25.80;57.58
37142;BME280;23041;49.816;20.092;2022-07-23T06:08:54;97730.55;;;25.91;57.26
37142;BME280;23041;49.816;20.092;2022-07-23T06:11:20;97732.56;;;26.03;57.07
37142;BME280;23041;49.816;20.092;2022-07-23T06:13:47;97734.45;;;26.14;56.84
37142;BME280;23041;49.816;20.092;2022-07-23T06:16:13;97722.41;;;26.25;56.65
37142;BME280;23041;49.816;20.092;2022-07-23T06:18:39;97723.67;;;26.43;56.50
37142;BME280;23041;49.816;20.092;2022-07-23T06:21:05;97720.27;;;26.57;56.22
37142;BME280;23041;49.816;20.092;2022-07-23T06:23:32;97717.27;;;26.68;55.94
37142;BME280;23041;49.816;20.092;2022-07-23T06:25:59;97718.03;;;26.81;55.75
37142;BME280;23041;49.816;20.092;2022-07-23T06:28:25;97720.25;;;26.89;55.33
37142;BME280;23041;49.816;20.092;2022-07-23T06:30:51;97719.20;;;26.98;54.97
37142;BME280;23041;49.816;20.092;2022-07-23T06:33:17;97709.33;;;27.11;54.62
37142;BME280;23041;49.816;20.092;2022-07-23T06:35:44;97716.92;;;27.23;54.36
37142;BME280;23041;49.816;20.092;2022-07-23T06:38:10;97713.69;;;27.32;54.00
37142;BME280;23041;49.816;20.092;2022-07-23T06:40:36;97714.64;;;27.48;53.73
37142;BME280;23041;49.816;20.092;2022-07-23T06:43:03;97706.97;;;27.68;53.60
37142;BME280;23041;49.816;20.092;2022-07-23T06:45:29;97702.78;;;27.89;53.38
37142;BME280;23041;49.816;20.092;2022-07-23T06:47:56;97706.97;;;28.09;53.20
37142;BME280;23041;49.816;20.092;2022-07-23T06:50:22;97704.48;;;28.18;52.73
37142;BME280;23041;49.816;20.092;2022-07-23T06:52:49;97710.27;;;28.33;52.31
37142;BME280;23041;49.816;20.092;2022-07-23T06:55:15;97705.31;;;28.54;52.01
37142;BME280;23041;49.816;20.092;2022-07-23T06:57:42;97704.02;;;28.69;51.53
37142;BME280;23041;49.816;20.092;2022-07-23T07:00:09;97697.86;;;28.85;51.12
37142;BME280;23041;49.816;20.092;2022-07-23T07:02:36;97698.05;;;29.07;50.90
37142;BME280;23041;49.816;20.092;2022-07-23T07:05:03;97695.81;;;29.28;50.61
37142;BME280;23041;49.816;20.092;2022-07-23T07:07:30;97691.54;;;29.48;50.30
37142;BME280;23041;49.816;20.092;2022-07-23T07:09:56;97691.84;;;29.73;49.96
37142;BME280;23041;49.816;20.092;2022-07-23T07:12:23;97686.64;;;29.92;49.41
37142;BME280;23041;49.816;20.092;2022-07-23T07:14:50;97683.42;;;30.18;48.99
37142;BME280;23041;49.816;20.092;2022-07-23T07:17:16;97694.65;;;30.54;48.76
37142;BME280;23041;49.816;20.092;2022-07-23T07:19:43;97695.98;;;30.83;48.41
37142;BME280;23041;49.816;20.092;2022-07-23T07:22:09;97692.95;;;31.11;47.96
37142;BME280;23041;49.816;20.092;2022-07-23T07:24:35;97696.39;;;31.41;47.44
37142;BME280;23041;49.816;20.092;2022-07-23T07:27:02;97687.91;;;31.73;46.94
37142;BME280;23041;49.816;20.092;2022-07-23T07:29:28;97691.75;;;32.00;46.31
37142;BME280;23041;49.816;20.092;2022-07-23T07:31:54;97690.38;;;32.32;45.66
37142;BME280;23041;49.816;20.092;2022-07-23T07:34:21;97683.30;;;32.57;44.84
37142;BME280;23041;49.816;20.092;2022-07-23T07:36:47;97678.48;;;32.92;44.24
37142;BME280;23041;49.816;20.092;2022-07-23T07:39:13;97675.05;;;33.27;43.56
37142;BME280;23041;49.816;20.092;2022-07-23T07:41:40;97680.89;;;33.55;42.85
37142;BME280;23041;49.816;20.092;2022-07-23T07:44:06;97682.41;;;33.82;42.22
37142;BME280;23041;49.816;20.092;2022-07-23T07:46:33;97680.59;;;34.12;41.87
37142;BME280;23041;49.816;20.092;2022-07-23T07:48:59;97671.73;;;34.35;41.34
37142;BME280;23041;49.816;20.092;2022-07-23T07:51:26;97684.48;;;34.52;40.83
37142;BME280;23041;49.816;20.092;2022-07-23T07:53:53;97676.86;;;34.55;40.16
37142;BME280;23041;49.816;20.092;2022-07-23T07:56:19;97675.63;;;34.66;39.78
37142;BME280;23041;49.816;20.092;2022-07-23T07:58:45;97674.39;;;34.96;39.57
37142;BME280;23041;49.816;20.092;2022-07-23T08:01:12;97674.22;;;35.22;39.17
37142;BME280;23041;49.816;20.092;2022-07-23T08:03:38;97680.94;;;35.54;38.87
37142;BME280;23041;49.816;20.092;2022-07-23T08:06:05;97677.13;;;35.80;38.42
37142;BME280;23041;49.816;20.092;2022-07-23T08:08:32;97676.33;;;36.18;38.08
37142;BME280;23041;49.816;20.092;2022-07-23T08:10:59;97679.03;;;36.46;37.49
37142;BME280;23041;49.816;20.092;2022-07-23T08:13:26;97676.19;;;36.66;37.05
37142;BME280;23041;49.816;20.092;2022-07-23T08:15:52;97677.95;;;37.02;36.82
37142;BME280;23041;49.816;20.092;2022-07-23T08:18:21;97676.30;;;37.40;36.27
37142;BME280;23041;49.816;20.092;2022-07-23T08:20:48;97679.22;;;37.52;35.48
37142;BME280;23041;49.816;20.092;2022-07-23T08:23:14;97683.87;;;37.90;35.11
37142;BME280;23041;49.816;20.092;2022-07-23T08:25:42;97684.08;;;38.37;34.75
37142;BME280;23041;49.816;20.092;2022-07-23T08:28:10;97697.23;;;38.75;34.08
37142;BME280;23041;49.816;20.092;2022-07-23T08:30:39;97692.11;;;38.62;33.06
37142;BME280;23041;49.816;20.092;2022-07-23T08:33:15;97686.38;;;38.62;32.19
37142;BME280;23041;49.816;20.092;2022-07-23T08:35:46;97695.73;;;39.09;31.46
37142;BME280;23041;49.816;20.092;2022-07-23T08:38:16;97697.83;;;41.24;31.13
37142;BME280;23041;49.816;20.092;2022-07-23T08:40:46;97686.66;;;44.12;30.22
37142;BME280;23041;49.816;20.092;2022-07-23T08:43:21;97692.44;;;46.32;28.49
37142;BME280;23041;49.816;20.092;2022-07-23T08:45:51;97693.15;;;48.13;26.71
37142;BME280;23041;49.816;20.092;2022-07-23T08:48:21;97691.70;;;49.50;24.94
37142;BME280;23041;49.816;20.092;2022-07-23T08:50:52;97685.13;;;50.39;23.57
37142;BME280;23041;49.816;20.092;2022-07-23T08:53:21;97687.77;;;51.29;22.34
37142;BME280;23041;49.816;20.092;2022-07-23T08:55:51;97685.69;;;52.23;21.40
37142;BME280;23041;49.816;20.092;2022-07-23T08:58:19;97674.83;;;52.46;20.34
37142;BME280;23041;49.816;20.092;2022-07-23T09:00:47;97677.27;;;52.85;19.42
37142;BME280;23041;49.816;20.092;2022-07-23T09:06:00;97662.52;;;52.70;18.24
37142;BME280;23041;49.816;20.092;2022-07-23T09:08:38;97655.79;;;52.43;17.55
37142;BME280;23041;49.816;20.092;2022-07-23T09:11:11;97653.31;;;52.03;17.26
37142;BME280;23041;49.816;20.092;2022-07-23T09:13:50;97651.13;;;52.00;17.52
37142;BME280;23041;49.816;20.092;2022-07-23T09:16:30;97650.12;;;51.66;17.28
37142;BME280;23041;49.816;20.092;2022-07-23T09:18:59;97644.22;;;51.60;16.83
37142;BME280;23041;49.816;20.092;2022-07-23T09:21:32;97642.21;;;51.82;16.88
37142;BME280;23041;49.816;20.092;2022-07-23T09:26:40;97635.48;;;51.67;16.53
37142;BME280;23041;49.816;20.092;2022-07-23T09:29:12;97631.55;;;51.36;16.59
37142;BME280;23041;49.816;20.092;2022-07-23T09:34:26;97637.75;;;50.44;16.61
37142;BME280;23041;49.816;20.092;2022-07-23T09:36:57;97634.45;;;50.16;16.81
37142;BME280;23041;49.816;20.092;2022-07-23T09:39:33;97633.60;;;49.63;16.94
37142;BME280;23041;49.816;20.092;2022-07-23T09:42:15;97637.05;;;49.13;17.14
37142;BME280;23041;49.816;20.092;2022-07-23T09:44:49;97638.17;;;48.60;17.09
37142;BME280;23041;49.816;20.092;2022-07-23T09:47:21;97642.44;;;47.64;16.74
37142;BME280;23041;49.816;20.092;2022-07-23T09:50:09;97644.13;;;46.65;16.86
37142;BME280;23041;49.816;20.092;2022-07-23T09:52:49;97635.23;;;45.45;16.91
37142;BME280;23041;49.816;20.092;2022-07-23T09:55:17;97628.94;;;43.96;17.37
37142;BME280;23041;49.816;20.092;2022-07-23T09:57:45;97633.59;;;43.18;17.83
37142;BME280;23041;49.816;20.092;2022-07-23T10:00:22;97621.03;;;42.63;18.27
37142;BME280;23041;49.816;20.092;2022-07-23T10:02:49;97621.22;;;42.51;18.77
37142;BME280;23041;49.816;20.092;2022-07-23T10:05:19;97621.13;;;42.49;19.02
37142;BME280;23041;49.816;20.092;2022-07-23T10:07:45;97616.97;;;42.69;19.59
37142;BME280;23041;49.816;20.092;2022-07-23T10:10:13;97617.54;;;42.81;20.24
37142;BME280;23041;49.816;20.092;2022-07-23T10:12:41;97619.56;;;42.78;20.84
37142;BME280;23041;49.816;20.092;2022-07-23T10:15:27;97612.25;;;42.60;21.27
37142;BME280;23041;49.816;20.092;2022-07-23T10:17:54;97608.73;;;42.15;21.62
37142;BME280;23041;49.816;20.092;2022-07-23T10:20:21;97604.70;;;41.91;22.06
37142;BME280;23041;49.816;20.092;2022-07-23T10:26:05;97597.41;;;41.31;22.50
37142;BME280;23041;49.816;20.092;2022-07-23T10:28:42;97599.77;;;40.65;22.85
37142;BME280;23041;49.816;20.092;2022-07-23T10:31:38;97598.55;;;40.29;23.36
37142;BME280;23041;49.816;20.092;2022-07-23T10:34:29;97598.27;;;40.12;23.75
37142;BME280;23041;49.816;20.092;2022-07-23T10:37:12;97597.09;;;39.78;23.71
37142;BME280;23041;49.816;20.092;2022-07-23T10:39:42;97592.38;;;39.71;23.36
37142;BME280;23041;49.816;20.092;2022-07-23T10:42:14;97596.11;;;39.98;23.35
37142;BME280;23041;49.816;20.092;2022-07-23T10:44:49;97587.25;;;40.07;23.50
37142;BME280;23041;49.816;20.092;2022-07-23T10:47:27;97595.91;;;39.56;23.40
37142;BME280;23041;49.816;20.092;2022-07-23T10:53:12;97590.20;;;39.08;23.67
37142;BME280;23041;49.816;20.092;2022-07-23T10:55:47;97588.66;;;38.83;23.58
37142;BME280;23041;49.816;20.092;2022-07-23T10:58:20;97577.19;;;38.94;24.02
37142;BME280;23041;49.816;20.092;2022-07-23T11:00:49;97577.64;;;39.38;24.08
37142;BME280;23041;49.816;20.092;2022-07-23T11:03:31;97577.00;;;39.28;23.80
37142;BME280;23041;49.816;20.092;2022-07-23T11:06:00;97573.44;;;39.16;23.33
37142;BME280;23041;49.816;20.092;2022-07-23T11:08:27;97575.55;;;39.40;23.23
37142;BME280;23041;49.816;20.092;2022-07-23T11:13:40;97579.11;;;39.77;23.57
37142;BME280;23041;49.816;20.092;2022-07-23T11:32:02;97559.98;;;40.21;23.91
37142;BME280;23041;49.816;20.092;2022-07-23T11:37:10;97547.19;;;40.50;23.10
37142;BME280;23041;49.816;20.092;2022-07-23T11:39:38;97549.22;;;40.34;22.86
37142;BME280;23041;49.816;20.092;2022-07-23T11:42:06;97542.22;;;39.98;23.00
37142;BME280;23041;49.816;20.092;2022-07-23T11:44:36;97541.09;;;39.52;23.36
37142;BME280;23041;49.816;20.092;2022-07-23T11:47:06;97542.65;;;39.67;23.24
37142;BME280;23041;49.816;20.092;2022-07-23T11:49:34;97536.02;;;39.77;23.44
37142;BME280;23041;49.816;20.092;2022-07-23T11:52:12;97535.04;;;39.98;23.65
37142;BME280;23041;49.816;20.092;2022-07-23T11:55:04;97531.92;;;40.20;23.60
37142;BME280;23041;49.816;20.092;2022-07-23T11:57:35;97531.22;;;40.33;23.63
37142;BME280;23041;49.816;20.092;2022-07-23T12:00:15;97528.26;;;40.46;23.05
37142;BME280;23041;49.816;20.092;2022-07-23T12:02:45;97521.30;;;40.50;22.93
37142;BME280;23041;49.816;20.092;2022-07-23T12:05:14;97517.73;;;40.37;23.28
37142;BME280;23041;49.816;20.092;2022-07-23T12:07:46;97523.70;;;40.27;23.54
37142;BME280;23041;49.816;20.092;2022-07-23T12:10:25;97521.28;;;40.23;23.51
37142;BME280;23041;49.816;20.092;2022-07-23T12:13:08;97516.59;;;40.16;23.50
37142;BME280;23041;49.816;20.092;2022-07-23T12:15:43;97508.84;;;39.92;23.66
37142;BME280;23041;49.816;20.092;2022-07-23T12:18:19;97512.50;;;39.93;23.85
37142;BME280;23041;49.816;20.092;2022-07-23T12:20:50;97504.56;;;39.93;23.88
37142;BME280;23041;49.816;20.092;2022-07-23T12:23:19;97507.92;;;39.88;23.96
37142;BME280;23041;49.816;20.092;2022-07-23T12:25:48;97498.94;;;39.95;24.05
37142;BME280;23041;49.816;20.092;2022-07-23T12:28:21;97500.03;;;40.15;24.03
37142;BME280;23041;49.816;20.092;2022-07-23T12:30:52;97496.91;;;40.37;24.01
37142;BME280;23041;49.816;20.092;2022-07-23T12:35:55;97483.78;;;40.62;23.75
37142;BME280;23041;49.816;20.092;2022-07-23T12:38:25;97487.16;;;40.57;23.49
37142;BME280;23041;49.816;20.092;2022-07-23T12:40:58;97492.40;;;40.33;23.46
37142;BME280;23041;49.816;20.092;2022-07-23T12:43:33;97489.00;;;39.97;23.43
37142;BME280;23041;49.816;20.092;2022-07-23T12:46:12;97481.70;;;39.95;23.63
37142;BME280;23041;49.816;20.092;2022-07-23T12:48:51;97472.81;;;40.17;23.67
37142;BME280;23041;49.816;20.092;2022-07-23T12:53:56;97463.67;;;40.21;23.45
37142;BME280;23041;49.816;20.092;2022-07-23T12:56:32;97467.61;;;40.14;23.34
37142;BME280;23041;49.816;20.092;2022-07-23T12:59:09;97454.35;;;39.68;23.05
37142;BME280;23041;49.816;20.092;2022-07-23T13:01:40;97451.59;;;39.43;23.38
37142;BME280;23041;49.816;20.092;2022-07-23T13:04:20;97454.88;;;39.51;23.55
37142;BME280;23041;49.816;20.092;2022-07-23T13:06:59;97458.06;;;39.83;23.92
37142;BME280;23041;49.816;20.092;2022-07-23T13:09:26;97454.36;;;40.08;24.02
37142;BME280;23041;49.816;20.092;2022-07-23T13:11:55;97450.63;;;39.91;23.85
37142;BME280;23041;49.816;20.092;2022-07-23T13:14:22;97445.66;;;39.93;23.64
37142;BME280;23041;49.816;20.092;2022-07-23T13:16:51;97447.33;;;39.97;23.59
37142;BME280;23041;49.816;20.092;2022-07-23T13:19:18;97434.72;;;39.77;23.51
37142;BME280;23041;49.816;20.092;2022-07-23T13:21:47;97436.57;;;39.45;23.44
37142;BME280;23041;49.816;20.092;2022-07-23T13:24:15;97431.95;;;39.26;23.57
37142;BME280;23041;49.816;20.092;2022-07-23T13:26:42;97440.63;;;39.14;23.80
37142;BME280;23041;49.816;20.092;2022-07-23T13:29:09;97439.03;;;38.87;24.17
37142;BME280;23041;49.816;20.092;2022-07-23T13:31:36;97439.14;;;38.76;24.61
37142;BME280;23041;49.816;20.092;2022-07-23T13:34:04;97439.03;;;38.50;24.76
37142;BME280;23041;49.816;20.092;2022-07-23T13:36:31;97441.33;;;38.17;25.33
37142;BME280;23041;49.816;20.092;2022-07-23T13:38:57;97443.00;;;37.97;25.62
37142;BME280;23041;49.816;20.092;2022-07-23T13:41:24;97437.52;;;37.78;25.77